sensor_id;sensor_type;location;lat;lon;timestamp;temperature;humidity
51579;DHT22;47998;53.242;6.386;2023-09-18T00:00:50;15.80;99.90
51579;DHT22;47998;53.242;6.386;2023-09-18T00:03:19;15.90;99.90
51579;DHT22;47998;53.242;6.386;2023-09-18T00:05:46;15.80;99.90
51579;DHT22;47998;53.242;6.386;2023-09-18T00:08:13;15.80;99.90
51579;DHT22;47998;53.242;6.386;2023-09-18T00:10:40;15.70;99.90
51579;DHT22;47998;53.242;6.386;2023-09-18T00:13:05;15.70;99.90
51579;DHT22;47998;53.242;6.386;2023-09-18T00:15:31;15.80;99.90
51579;DHT22;47998;53.242;6.386;2023-09-18T00:17:57;15.70;99.90
51579;DHT22;47998;53.242;6.386;2023-09-18T00:20:23;15.80;99.90
51579;DHT22;47998;53.242;6.386;2023-09-18T00:22:55;15.80;99.90
51579;DHT22;47998;53.242;6.386;2023-09-18T00:25:22;15.70;99.90
51579;DHT22;47998;53.242;6.386;2023-09-18T00:27:48;15.90;99.90
51579;DHT22;47998;53.242;6.386;2023-09-18T00:30:13;15.90;99.90
51579;DHT22;47998;53.242;6.386;2023-09-18T00:32:39;15.80;99.90
51579;DHT22;47998;53.242;6.386;2023-09-18T00:35:05;15.80;99.90
51579;DHT22;47998;53.242;6.386;2023-09-18T00:37:31;15.80;99.90
51579;DHT22;47998;53.242;6.386;2023-09-18T00:39:57;15.90;99.90
51579;DHT22;47998;53.242;6.386;2023-09-18T00:42:23;15.90;99.90
51579;DHT22;47998;53.242;6.386;2023-09-18T00:44:49;15.80;99.90
51579;DHT22;47998;53.242;6.386;2023-09-18T00:47:16;15.80;99.90
51579;DHT22;47998;53.242;6.386;2023-09-18T00:49:46;15.90;99.90
51579;DHT22;47998;53.242;6.386;2023-09-18T00:52:12;15.80;99.90
51579;DHT22;47998;53.242;6.386;2023-09-18T00:54:39;15.80;99.90
51579;DHT22;47998;53.242;6.386;2023-09-18T00:57:06;15.80;99.90
51579;DHT22;47998;53.242;6.386;2023-09-18T00:59:32;15.80;99.90
51579;DHT22;47998;53.242;6.386;2023-09-18T01:01:59;15.80;99.90
51579;DHT22;47998;53.242;6.386;2023-09-18T01:04:25;15.80;99.90
51579;DHT22;47998;53.242;6.386;2023-09-18T01:06:53;16.00;99.90
51579;DHT22;47998;53.242;6.386;2023-09-18T01:09:22;16.00;99.90
51579;DHT22;47998;53.242;6.386;2023-09-18T01:12:00;15.80;99.90
51579;DHT22;47998;53.242;6.386;2023-09-18T01:17:15;15.90;99.90
51579;DHT22;47998;53.242;6.386;2023-09-18T01:22:12;15.80;99.90
51579;DHT22;47998;53.242;6.386;2023-09-18T01:24:39;15.90;99.90
51579;DHT22;47998;53.242;6.386;2023-09-18T01:27:08;15.90;99.90
51579;DHT22;47998;53.242;6.386;2023-09-18T01:29:34;15.90;99.90
51579;DHT22;47998;53.242;6.386;2023-09-18T01:32:00;16.00;99.90
51579;DHT22;47998;53.242;6.386;2023-09-18T01:34:28;15.90;99.90
51579;DHT22;47998;53.242;6.386;2023-09-18T01:36:57;16.00;99.90
51579;DHT22;47998;53.242;6.386;2023-09-18T01:39:24;16.00;99.90
51579;DHT22;47998;53.242;6.386;2023-09-18T01:41:52;15.90;99.90
51579;DHT22;47998;53.242;6.386;2023-09-18T01:44:18;16.00;99.90
51579;DHT22;47998;53.242;6.386;2023-09-18T01:46:44;15.90;99.90
51579;DHT22;47998;53.242;6.386;2023-09-18T01:49:10;16.00;99.90
51579;DHT22;47998;53.242;6.386;2023-09-18T01:51:36;15.80;99.90
51579;DHT22;47998;53.242;6.386;2023-09-18T01:54:02;15.90;99.90
51579;DHT22;47998;53.242;6.386;2023-09-18T01:56:29;15.90;99.90
51579;DHT22;47998;53.242;6.386;2023-09-18T01:58:54;15.90;99.90
51579;DHT22;47998;53.242;6.386;2023-09-18T02:01:20;15.90;99.90
51579;DHT22;47998;53.242;6.386;2023-09-18T02:03:46;15.80;99.90
51579;DHT22;47998;53.242;6.386;2023-09-18T02:06:12;15.80;99.90
51579;DHT22;47998;53.242;6.386;2023-09-18T02:08:38;15.90;99.90
51579;DHT22;47998;53.242;6.386;2023-09-18T02:11:04;15.90;99.90
51579;DHT22;47998;53.242;6.386;2023-09-18T02:13:30;15.80;99.90
51579;DHT22;47998;53.242;6.386;2023-09-18T02:15:56;16.00;99.90
51579;DHT22;47998;53.242;6.386;2023-09-18T02:18:22;16.00;99.90
51579;DHT22;47998;53.242;6.386;2023-09-18T02:20:47;15.90;99.90
51579;DHT22;47998;53.242;6.386;2023-09-18T02:23:15;16.00;99.90
51579;DHT22;47998;53.242;6.386;2023-09-18T02:25:41;16.00;99.90
51579;DHT22;47998;53.242;6.386;2023-09-18T02:28:07;15.90;99.90
51579;DHT22;47998;53.242;6.386;2023-09-18T02:30:33;16.00;99.90
51579;DHT22;47998;53.242;6.386;2023-09-18T02:32:59;16.00;99.90
51579;DHT22;47998;53.242;6.386;2023-09-18T02:35:25;15.90;99.90
51579;DHT22;47998;53.242;6.386;2023-09-18T02:37:51;16.00;99.90
51579;DHT22;47998;53.242;6.386;2023-09-18T02:40:17;16.10;99.90
51579;DHT22;47998;53.242;6.386;2023-09-18T02:42:43;16.00;99.90
51579;DHT22;47998;53.242;6.386;2023-09-18T02:45:09;16.00;99.90
51579;DHT22;47998;53.242;6.386;2023-09-18T02:47:35;16.10;99.90
51579;DHT22;47998;53.242;6.386;2023-09-18T02:50:04;16.00;99.90
51579;DHT22;47998;53.242;6.386;2023-09-18T02:52:31;16.00;99.90
51579;DHT22;47998;53.242;6.386;2023-09-18T02:54:56;16.10;99.90
51579;DHT22;47998;53.242;6.386;2023-09-18T02:57:22;16.10;99.90
51579;DHT22;47998;53.242;6.386;2023-09-18T02:59:48;16.00;99.90
51579;DHT22;47998;53.242;6.386;2023-09-18T03:02:14;16.10;99.90
51579;DHT22;47998;53.242;6.386;2023-09-18T03:04:39;16.20;99.90
51579;DHT22;47998;53.242;6.386;2023-09-18T03:07:05;16.10;99.90
51579;DHT22;47998;53.242;6.386;2023-09-18T03:09:31;16.30;99.90
51579;DHT22;47998;53.242;6.386;2023-09-18T03:11:56;16.20;99.90
51579;DHT22;47998;53.242;6.386;2023-09-18T03:14:22;16.20;99.90
51579;DHT22;47998;53.242;6.386;2023-09-18T03:16:48;16.30;99.90
51579;DHT22;47998;53.242;6.386;2023-09-18T03:19:14;16.40;99.90
51579;DHT22;47998;53.242;6.386;2023-09-18T03:21:39;16.20;99.90
51579;DHT22;47998;53.242;6.386;2023-09-18T03:24:05;16.30;99.90
51579;DHT22;47998;53.242;6.386;2023-09-18T03:26:31;16.30;99.90
51579;DHT22;47998;53.242;6.386;2023-09-18T03:28:57;16.40;99.90
51579;DHT22;47998;53.242;6.386;2023-09-18T03:31:23;16.30;99.90
51579;DHT22;47998;53.242;6.386;2023-09-18T03:33:48;16.50;99.90
51579;DHT22;47998;53.242;6.386;2023-09-18T03:36:14;16.50;99.90
51579;DHT22;47998;53.242;6.386;2023-09-18T03:38:40;16.30;99.90
51579;DHT22;47998;53.242;6.386;2023-09-18T03:41:06;16.40;99.90
51579;DHT22;47998;53.242;6.386;2023-09-18T03:43:31;16.50;99.90
51579;DHT22;47998;53.242;6.386;2023-09-18T03:46:04;16.40;99.90
51579;DHT22;47998;53.242;6.386;2023-09-18T03:48:30;16.40;99.90
51579;DHT22;47998;53.242;6.386;2023-09-18T03:51:02;16.40;99.90
51579;DHT22;47998;53.242;6.386;2023-09-18T03:53:27;16.40;99.90
51579;DHT22;47998;53.242;6.386;2023-09-18T03:55:53;16.40;99.90
51579;DHT22;47998;53.242;6.386;2023-09-18T03:58:19;16.40;99.90
51579;DHT22;47998;53.242;6.386;2023-09-18T04:00:45;16.40;99.90
51579;DHT22;47998;53.242;6.386;2023-09-18T04:03:11;16.30;99.90
51579;DHT22;47998;53.242;6.386;2023-09-18T04:05:37;16.40;99.90
51579;DHT22;47998;53.242;6.386;2023-09-18T04:08:03;16.30;99.90
51579;DHT22;47998;53.242;6.386;2023-09-18T04:10:29;16.30;99.90
51579;DHT22;47998;53.242;6.386;2023-09-18T04:12:54;16.40;99.90
51579;DHT22;47998;53.242;6.386;2023-09-18T04:15:20;16.40;99.90
51579;DHT22;47998;53.242;6.386;2023-09-18T04:17:48;16.40;99.90
51579;DHT22;47998;53.242;6.386;2023-09-18T04:20:14;16.50;99.90
51579;DHT22;47998;53.242;6.386;2023-09-18T04:22:45;16.50;99.90
51579;DHT22;47998;53.242;6.386;2023-09-18T04:25:12;16.50;99.90
51579;DHT22;47998;53.242;6.386;2023-09-18T04:27:37;16.60;99.90
51579;DHT22;47998;53.242;6.386;2023-09-18T04:30:03;16.60;99.90
51579;DHT22;47998;53.242;6.386;2023-09-18T04:32:29;16.60;99.90
51579;DHT22;47998;53.242;6.386;2023-09-18T04:34:55;16.70;99.90
51579;DHT22;47998;53.242;6.386;2023-09-18T04:37:20;16.60;99.90
51579;DHT22;47998;53.242;6.386;2023-09-18T04:39:46;16.60;99.90
51579;DHT22;47998;53.242;6.386;2023-09-18T04:42:12;16.60;99.90
51579;DHT22;47998;53.242;6.386;2023-09-18T04:44:38;16.60;99.90
51579;DHT22;47998;53.242;6.386;2023-09-18T04:47:03;16.70;99.90
51579;DHT22;47998;53.242;6.386;2023-09-18T04:49:29;16.70;99.90
51579;DHT22;47998;53.242;6.386;2023-09-18T04:51:58;16.60;99.90
51579;DHT22;47998;53.242;6.386;2023-09-18T04:54:24;16.60;99.90
51579;DHT22;47998;53.242;6.386;2023-09-18T04:56:49;16.60;99.90
51579;DHT22;47998;53.242;6.386;2023-09-18T04:59:15;16.60;99.90
51579;DHT22;47998;53.242;6.386;2023-09-18T05:01:41;16.60;99.90
51579;DHT22;47998;53.242;6.386;2023-09-18T05:04:08;16.80;99.90
51579;DHT22;47998;53.242;6.386;2023-09-18T05:06:33;16.70;99.90
51579;DHT22;47998;53.242;6.386;2023-09-18T05:08:59;16.80;99.90
51579;DHT22;47998;53.242;6.386;2023-09-18T05:11:27;16.80;99.90
51579;DHT22;47998;53.242;6.386;2023-09-18T05:13:54;16.80;99.90
51579;DHT22;47998;53.242;6.386;2023-09-18T05:16:20;16.90;99.90
51579;DHT22;47998;53.242;6.386;2023-09-18T05:18:46;16.90;99.90
51579;DHT22;47998;53.242;6.386;2023-09-18T05:21:11;16.90;99.90
51579;DHT22;47998;53.242;6.386;2023-09-18T05:23:37;16.90;99.90
51579;DHT22;47998;53.242;6.386;2023-09-18T05:26:03;16.90;99.90
51579;DHT22;47998;53.242;6.386;2023-09-18T05:28:29;17.00;99.90
51579;DHT22;47998;53.242;6.386;2023-09-18T05:30:54;17.00;99.90
51579;DHT22;47998;53.242;6.386;2023-09-18T05:33:20;17.00;99.90
51579;DHT22;47998;53.242;6.386;2023-09-18T05:35:46;16.90;99.90
51579;DHT22;47998;53.242;6.386;2023-09-18T05:38:14;16.90;99.90
51579;DHT22;47998;53.242;6.386;2023-09-18T05:40:43;16.90;99.90
51579;DHT22;47998;53.242;6.386;2023-09-18T05:43:10;17.00;99.90
51579;DHT22;47998;53.242;6.386;2023-09-18T05:45:37;17.00;99.90
51579;DHT22;47998;53.242;6.386;2023-09-18T05:48:04;17.00;99.90
51579;DHT22;47998;53.242;6.386;2023-09-18T05:50:31;17.10;99.90
51579;DHT22;47998;53.242;6.386;2023-09-18T05:52:58;17.10;99.90
51579;DHT22;47998;53.242;6.386;2023-09-18T05:55:29;17.10;99.90
51579;DHT22;47998;53.242;6.386;2023-09-18T05:57:55;17.10;99.90
51579;DHT22;47998;53.242;6.386;2023-09-18T06:00:23;17.10;99.90
51579;DHT22;47998;53.242;6.386;2023-09-18T06:02:49;17.10;99.90
51579;DHT22;47998;53.242;6.386;2023-09-18T06:05:16;17.20;99.90
51579;DHT22;47998;53.242;6.386;2023-09-18T06:07:43;17.30;99.90
51579;DHT22;47998;53.242;6.386;2023-09-18T06:10:10;17.30;99.90
51579;DHT22;47998;53.242;6.386;2023-09-18T06:12:41;17.30;99.90
51579;DHT22;47998;53.242;6.386;2023-09-18T06:15:10;17.30;99.90
51579;DHT22;47998;53.242;6.386;2023-09-18T06:17:40;17.30;99.90
51579;DHT22;47998;53.242;6.386;2023-09-18T06:20:10;17.30;99.90
51579;DHT22;47998;53.242;6.386;2023-09-18T06:22:42;17.30;99.90
51579;DHT22;47998;53.242;6.386;2023-09-18T06:25:08;17.40;99.90
51579;DHT22;47998;53.242;6.386;2023-09-18T06:27:38;17.30;99.90
51579;DHT22;47998;53.242;6.386;2023-09-18T06:30:05;17.40;99.90
51579;DHT22;47998;53.242;6.386;2023-09-18T06:32:31;17.40;99.90
51579;DHT22;47998;53.242;6.386;2023-09-18T06:34:57;17.30;99.90
51579;DHT22;47998;53.242;6.386;2023-09-18T06:37:24;17.40;99.90
51579;DHT22;47998;53.242;6.386;2023-09-18T06:39:54;17.40;99.90
51579;DHT22;47998;53.242;6.386;2023-09-18T06:42:22;17.50;99.90
51579;DHT22;47998;53.242;6.386;2023-09-18T06:44:50;17.60;99.90
51579;DHT22;47998;53.242;6.386;2023-09-18T06:47:16;17.70;99.90
51579;DHT22;47998;53.242;6.386;2023-09-18T06:49:44;17.70;99.90
51579;DHT22;47998;53.242;6.386;2023-09-18T06:52:12;17.90;99.90
51579;DHT22;47998;53.242;6.386;2023-09-18T06:54:38;17.90;99.90
51579;DHT22;47998;53.242;6.386;2023-09-18T06:57:04;18.00;99.90
51579;DHT22;47998;53.242;6.386;2023-09-18T06:59:32;18.10;99.90
51579;DHT22;47998;53.242;6.386;2023-09-18T07:02:01;18.10;99.90
51579;DHT22;47998;53.242;6.386;2023-09-18T07:04:27;18.20;99.90
51579;DHT22;47998;53.242;6.386;2023-09-18T07:06:53;18.20;99.90
51579;DHT22;47998;53.242;6.386;2023-09-18T07:09:19;18.30;99.90
51579;DHT22;47998;53.242;6.386;2023-09-18T07:11:48;18.20;99.90
51579;DHT22;47998;53.242;6.386;2023-09-18T07:14:14;18.30;99.90
51579;DHT22;47998;53.242;6.386;2023-09-18T07:16:40;18.30;99.90
51579;DHT22;47998;53.242;6.386;2023-09-18T07:19:06;18.40;99.90
51579;DHT22;47998;53.242;6.386;2023-09-18T07:21:32;18.40;99.90
51579;DHT22;47998;53.242;6.386;2023-09-18T07:24:00;18.50;99.90
51579;DHT22;47998;53.242;6.386;2023-09-18T07:26:26;18.50;99.90
51579;DHT22;47998;53.242;6.386;2023-09-18T07:28:51;18.50;99.90
51579;DHT22;47998;53.242;6.386;2023-09-18T07:31:17;18.50;99.90
51579;DHT22;47998;53.242;6.386;2023-09-18T07:33:43;18.50;99.90
51579;DHT22;47998;53.242;6.386;2023-09-18T07:36:11;18.50;99.90
51579;DHT22;47998;53.242;6.386;2023-09-18T07:38:36;18.50;99.90
51579;DHT22;47998;53.242;6.386;2023-09-18T07:41:09;18.40;99.90
51579;DHT22;47998;53.242;6.386;2023-09-18T07:43:34;18.40;99.90
51579;DHT22;47998;53.242;6.386;2023-09-18T07:46:00;18.20;99.90
51579;DHT22;47998;53.242;6.386;2023-09-18T07:48:27;18.20;99.90
51579;DHT22;47998;53.242;6.386;2023-09-18T07:50:53;18.00;99.90
51579;DHT22;47998;53.242;6.386;2023-09-18T07:53:20;17.80;99.90
51579;DHT22;47998;53.242;6.386;2023-09-18T07:55:54;17.90;99.90
51579;DHT22;47998;53.242;6.386;2023-09-18T07:58:20;17.70;99.90
51579;DHT22;47998;53.242;6.386;2023-09-18T08:00:46;17.70;99.90
51579;DHT22;47998;53.242;6.386;2023-09-18T08:03:13;17.70;99.90
51579;DHT22;47998;53.242;6.386;2023-09-18T08:05:39;17.90;99.90
51579;DHT22;47998;53.242;6.386;2023-09-18T08:08:05;17.90;99.90
51579;DHT22;47998;53.242;6.386;2023-09-18T08:10:31;17.80;99.90
51579;DHT22;47998;53.242;6.386;2023-09-18T08:12:57;17.80;99.90
51579;DHT22;47998;53.242;6.386;2023-09-18T08:15:22;17.80;99.90
51579;DHT22;47998;53.242;6.386;2023-09-18T08:17:48;17.80;99.90
51579;DHT22;47998;53.242;6.386;2023-09-18T08:20:15;17.90;99.90
51579;DHT22;47998;53.242;6.386;2023-09-18T08:22:41;18.10;99.90
51579;DHT22;47998;53.242;6.386;2023-09-18T08:25:07;18.00;99.90
51579;DHT22;47998;53.242;6.386;2023-09-18T08:27:37;18.10;99.90
51579;DHT22;47998;53.242;6.386;2023-09-18T08:30:07;17.90;99.90
51579;DHT22;47998;53.242;6.386;2023-09-18T08:32:36;17.90;99.90
51579;DHT22;47998;53.242;6.386;2023-09-18T08:35:02;18.00;99.90
51579;DHT22;47998;53.242;6.386;2023-09-18T08:37:27;17.80;99.90
51579;DHT22;47998;53.242;6.386;2023-09-18T08:39:53;17.80;99.90
51579;DHT22;47998;53.242;6.386;2023-09-18T08:42:20;17.80;99.90
51579;DHT22;47998;53.242;6.386;2023-09-18T08:44:50;18.10;99.90
51579;DHT22;47998;53.242;6.386;2023-09-18T08:47:18;18.10;99.90
51579;DHT22;47998;53.242;6.386;2023-09-18T08:49:46;18.10;99.90
51579;DHT22;47998;53.242;6.386;2023-09-18T08:52:12;18.10;99.90
51579;DHT22;47998;53.242;6.386;2023-09-18T08:54:40;18.10;99.90
51579;DHT22;47998;53.242;6.386;2023-09-18T08:57:06;18.20;99.90
51579;DHT22;47998;53.242;6.386;2023-09-18T08:59:35;18.30;99.90
51579;DHT22;47998;53.242;6.386;2023-09-18T09:02:04;18.40;99.90
51579;DHT22;47998;53.242;6.386;2023-09-18T09:04:29;18.50;99.90
51579;DHT22;47998;53.242;6.386;2023-09-18T09:06:55;18.40;99.90
51579;DHT22;47998;53.242;6.386;2023-09-18T09:09:25;18.50;99.90
51579;DHT22;47998;53.242;6.386;2023-09-18T09:11:53;18.50;99.90
51579;DHT22;47998;53.242;6.386;2023-09-18T09:14:19;18.80;99.90
51579;DHT22;47998;53.242;6.386;2023-09-18T09:16:51;18.60;99.90
51579;DHT22;47998;53.242;6.386;2023-09-18T09:19:18;18.80;99.90
51579;DHT22;47998;53.242;6.386;2023-09-18T09:21:45;18.70;99.90
51579;DHT22;47998;53.242;6.386;2023-09-18T09:24:12;18.80;99.90
51579;DHT22;47998;53.242;6.386;2023-09-18T09:26:40;18.90;99.90
51579;DHT22;47998;53.242;6.386;2023-09-18T09:29:18;19.00;99.90
51579;DHT22;47998;53.242;6.386;2023-09-18T09:31:44;18.90;99.90
51579;DHT22;47998;53.242;6.386;2023-09-18T09:34:11;19.10;99.90
51579;DHT22;47998;53.242;6.386;2023-09-18T09:36:51;19.20;99.90
51579;DHT22;47998;53.242;6.386;2023-09-18T09:39:18;19.30;99.90
51579;DHT22;47998;53.242;6.386;2023-09-18T09:41:47;19.40;99.90
51579;DHT22;47998;53.242;6.386;2023-09-18T09:44:15;19.30;99.90
51579;DHT22;47998;53.242;6.386;2023-09-18T09:46:48;19.20;99.90
51579;DHT22;47998;53.242;6.386;2023-09-18T09:49:14;19.20;99.90
51579;DHT22;47998;53.242;6.386;2023-09-18T09:51:43;19.30;99.90
51579;DHT22;47998;53.242;6.386;2023-09-18T09:54:09;19.30;99.90
51579;DHT22;47998;53.242;6.386;2023-09-18T09:59:09;19.40;99.90
51579;DHT22;47998;53.242;6.386;2023-09-18T10:01:36;19.40;99.90
51579;DHT22;47998;53.242;6.386;2023-09-18T10:04:09;19.60;99.90
51579;DHT22;47998;53.242;6.386;2023-09-18T10:06:36;19.80;99.90
51579;DHT22;47998;53.242;6.386;2023-09-18T10:09:03;20.00;99.90
51579;DHT22;47998;53.242;6.386;2023-09-18T10:11:31;20.00;99.90
51579;DHT22;47998;53.242;6.386;2023-09-18T10:14:12;20.00;99.90
51579;DHT22;47998;53.242;6.386;2023-09-18T10:16:40;20.20;99.90
51579;DHT22;47998;53.242;6.386;2023-09-18T10:22:39;20.40;99.90
51579;DHT22;47998;53.242;6.386;2023-09-18T10:25:22;20.50;99.90
51579;DHT22;47998;53.242;6.386;2023-09-18T10:27:51;20.60;99.90
51579;DHT22;47998;53.242;6.386;2023-09-18T10:30:24;20.70;99.90
51579;DHT22;47998;53.242;6.386;2023-09-18T10:32:51;20.60;99.90
51579;DHT22;47998;53.242;6.386;2023-09-18T10:35:17;20.50;99.90
51579;DHT22;47998;53.242;6.386;2023-09-18T10:37:46;20.60;99.90
51579;DHT22;47998;53.242;6.386;2023-09-18T10:40:13;20.90;99.90
51579;DHT22;47998;53.242;6.386;2023-09-18T10:42:40;21.00;99.90
51579;DHT22;47998;53.242;6.386;2023-09-18T10:45:11;21.00;99.90
51579;DHT22;47998;53.242;6.386;2023-09-18T10:47:39;21.10;99.90
51579;DHT22;47998;53.242;6.386;2023-09-18T10:50:06;21.20;99.90
51579;DHT22;47998;53.242;6.386;2023-09-18T10:52:36;21.50;99.90
51579;DHT22;47998;53.242;6.386;2023-09-18T10:55:04;21.70;99.90
51579;DHT22;47998;53.242;6.386;2023-09-18T10:57:34;22.20;99.90
51579;DHT22;47998;53.242;6.386;2023-09-18T11:00:01;22.40;99.90
51579;DHT22;47998;53.242;6.386;2023-09-18T11:02:40;22.30;99.90
51579;DHT22;47998;53.242;6.386;2023-09-18T11:05:06;21.70;99.90
51579;DHT22;47998;53.242;6.386;2023-09-18T11:07:32;21.60;99.90
51579;DHT22;47998;53.242;6.386;2023-09-18T11:09:58;22.00;99.90
51579;DHT22;47998;53.242;6.386;2023-09-18T11:12:43;22.60;99.90
51579;DHT22;47998;53.242;6.386;2023-09-18T11:15:09;23.10;99.90
51579;DHT22;47998;53.242;6.386;2023-09-18T11:17:59;23.00;1.40
51579;DHT22;47998;53.242;6.386;2023-09-18T11:20:25;23.00;1.00
51579;DHT22;47998;53.242;6.386;2023-09-18T11:23:15;23.40;94.50
51579;DHT22;47998;53.242;6.386;2023-09-18T11:25:42;23.40;1.00
51579;DHT22;47998;53.242;6.386;2023-09-18T11:28:24;23.70;99.90
51579;DHT22;47998;53.242;6.386;2023-09-18T11:30:52;23.90;1.00
51579;DHT22;47998;53.242;6.386;2023-09-18T11:33:42;24.10;1.00
51579;DHT22;47998;53.242;6.386;2023-09-18T11:36:12;24.00;99.90
51579;DHT22;47998;53.242;6.386;2023-09-18T11:38:52;24.20;99.90
51579;DHT22;47998;53.242;6.386;2023-09-18T11:41:23;24.10;99.90
51579;DHT22;47998;53.242;6.386;2023-09-18T11:43:50;23.70;99.90
51579;DHT22;47998;53.242;6.386;2023-09-18T11:46:20;23.20;57.60
51579;DHT22;47998;53.242;6.386;2023-09-18T11:48:48;22.60;1.00
51579;DHT22;47998;53.242;6.386;2023-09-18T11:51:23;22.80;99.90
51579;DHT22;47998;53.242;6.386;2023-09-18T11:53:51;22.80;99.90
51579;DHT22;47998;53.242;6.386;2023-09-18T11:56:18;22.50;99.90
51579;DHT22;47998;53.242;6.386;2023-09-18T11:58:48;22.30;1.00
51579;DHT22;47998;53.242;6.386;2023-09-18T12:01:15;22.20;99.90
51579;DHT22;47998;53.242;6.386;2023-09-18T12:03:41;21.90;99.90
51579;DHT22;47998;53.242;6.386;2023-09-18T12:06:07;21.80;99.90
51579;DHT22;47998;53.242;6.386;2023-09-18T12:08:36;21.70;1.00
51579;DHT22;47998;53.242;6.386;2023-09-18T12:11:05;22.10;1.00
51579;DHT22;47998;53.242;6.386;2023-09-18T12:13:31;22.50;1.00
51579;DHT22;47998;53.242;6.386;2023-09-18T12:16:02;22.80;99.90
51579;DHT22;47998;53.242;6.386;2023-09-18T12:18:31;23.00;99.90
51579;DHT22;47998;53.242;6.386;2023-09-18T12:21:01;22.90;99.90
51579;DHT22;47998;53.242;6.386;2023-09-18T12:23:33;22.60;99.90
51579;DHT22;47998;53.242;6.386;2023-09-18T12:26:01;22.20;99.90
51579;DHT22;47998;53.242;6.386;2023-09-18T12:28:29;22.40;1.00
51579;DHT22;47998;53.242;6.386;2023-09-18T12:30:56;22.30;99.90
51579;DHT22;47998;53.242;6.386;2023-09-18T12:33:25;21.90;33.90
51579;DHT22;47998;53.242;6.386;2023-09-18T12:35:51;21.70;99.90
51579;DHT22;47998;53.242;6.386;2023-09-18T12:38:19;21.50;99.90
51579;DHT22;47998;53.242;6.386;2023-09-18T12:40:48;21.40;1.00
51579;DHT22;47998;53.242;6.386;2023-09-18T12:43:15;21.30;1.00
51579;DHT22;47998;53.242;6.386;2023-09-18T12:45:42;21.40;73.00
51579;DHT22;47998;53.242;6.386;2023-09-18T12:48:09;21.60;62.20
51579;DHT22;47998;53.242;6.386;2023-09-18T12:50:35;21.70;1.00
51579;DHT22;47998;53.242;6.386;2023-09-18T12:55:34;22.40;1.00
51579;DHT22;47998;53.242;6.386;2023-09-18T12:58:01;22.50;99.90
51579;DHT22;47998;53.242;6.386;2023-09-18T13:00:31;22.40;99.90
51579;DHT22;47998;53.242;6.386;2023-09-18T13:02:57;22.00;99.90
51579;DHT22;47998;53.242;6.386;2023-09-18T13:05:24;21.70;99.90
51579;DHT22;47998;53.242;6.386;2023-09-18T13:07:54;21.60;99.90
51579;DHT22;47998;53.242;6.386;2023-09-18T13:10:20;21.50;99.90
51579;DHT22;47998;53.242;6.386;2023-09-18T13:12:49;21.40;99.90
51579;DHT22;47998;53.242;6.386;2023-09-18T13:15:29;21.80;1.00
51579;DHT22;47998;53.242;6.386;2023-09-18T13:17:57;22.50;99.90
51579;DHT22;47998;53.242;6.386;2023-09-18T13:20:25;22.70;99.90
51579;DHT22;47998;53.242;6.386;2023-09-18T13:22:54;23.00;1.00
51579;DHT22;47998;53.242;6.386;2023-09-18T13:25:24;23.30;99.90
51579;DHT22;47998;53.242;6.386;2023-09-18T13:27:52;23.50;1.00
51579;DHT22;47998;53.242;6.386;2023-09-18T13:30:18;23.70;76.10
51579;DHT22;47998;53.242;6.386;2023-09-18T13:32:46;23.70;99.90
51579;DHT22;47998;53.242;6.386;2023-09-18T13:35:17;23.50;1.00
51579;DHT22;47998;53.242;6.386;2023-09-18T13:37:43;23.70;99.90
51579;DHT22;47998;53.242;6.386;2023-09-18T13:40:10;23.70;99.90
51579;DHT22;47998;53.242;6.386;2023-09-18T13:42:39;24.00;99.90
51579;DHT22;47998;53.242;6.386;2023-09-18T13:45:06;24.00;1.00
51579;DHT22;47998;53.242;6.386;2023-09-18T13:47:33;24.10;99.90
51579;DHT22;47998;53.242;6.386;2023-09-18T13:50:00;24.00;1.00
51579;DHT22;47998;53.242;6.386;2023-09-18T13:52:27;24.00;99.90
51579;DHT22;47998;53.242;6.386;2023-09-18T13:54:53;23.90;99.90
51579;DHT22;47998;53.242;6.386;2023-09-18T13:57:19;23.80;21.10
51579;DHT22;47998;53.242;6.386;2023-09-18T13:59:46;23.50;99.90
51579;DHT22;47998;53.242;6.386;2023-09-18T14:02:12;22.80;1.00
51579;DHT22;47998;53.242;6.386;2023-09-18T14:04:38;22.40;99.90
51579;DHT22;47998;53.242;6.386;2023-09-18T14:07:05;22.30;1.00
51579;DHT22;47998;53.242;6.386;2023-09-18T14:09:31;22.40;99.90
51579;DHT22;47998;53.242;6.386;2023-09-18T14:11:57;22.60;93.00
51579;DHT22;47998;53.242;6.386;2023-09-18T14:14:22;22.90;99.70
51579;DHT22;47998;53.242;6.386;2023-09-18T14:16:49;22.80;99.90
51579;DHT22;47998;53.242;6.386;2023-09-18T14:19:17;22.70;1.00
51579;DHT22;47998;53.242;6.386;2023-09-18T14:21:43;22.50;1.00
51579;DHT22;47998;53.242;6.386;2023-09-18T14:24:10;22.20;99.90
51579;DHT22;47998;53.242;6.386;2023-09-18T14:26:36;22.60;99.90
51579;DHT22;47998;53.242;6.386;2023-09-18T14:29:10;22.90;1.00
51579;DHT22;47998;53.242;6.386;2023-09-18T14:31:37;23.10;1.00
51579;DHT22;47998;53.242;6.386;2023-09-18T14:34:03;22.90;1.00
51579;DHT22;47998;53.242;6.386;2023-09-18T14:36:34;22.80;1.00
51579;DHT22;47998;53.242;6.386;2023-09-18T14:39:01;22.90;1.00
51579;DHT22;47998;53.242;6.386;2023-09-18T14:41:27;22.90;1.00
51579;DHT22;47998;53.242;6.386;2023-09-18T14:43:53;23.00;99.90
51579;DHT22;47998;53.242;6.386;2023-09-18T14:46:20;23.00;99.90
51579;DHT22;47998;53.242;6.386;2023-09-18T14:48:46;22.60;99.90
51579;DHT22;47998;53.242;6.386;2023-09-18T14:51:12;22.20;99.90
51579;DHT22;47998;53.242;6.386;2023-09-18T14:53:38;22.10;1.00
51579;DHT22;47998;53.242;6.386;2023-09-18T14:56:04;21.90;99.90
51579;DHT22;47998;53.242;6.386;2023-09-18T14:58:30;21.90;99.90
51579;DHT22;47998;53.242;6.386;2023-09-18T15:00:57;22.10;1.00
51579;DHT22;47998;53.242;6.386;2023-09-18T15:03:23;22.50;1.00
51579;DHT22;47998;53.242;6.386;2023-09-18T15:05:54;22.90;99.90
51579;DHT22;47998;53.242;6.386;2023-09-18T15:08:21;23.20;1.00
51579;DHT22;47998;53.242;6.386;2023-09-18T15:10:47;23.20;99.90
51579;DHT22;47998;53.242;6.386;2023-09-18T15:13:12;23.00;99.90
51579;DHT22;47998;53.242;6.386;2023-09-18T15:15:42;23.00;1.00
51579;DHT22;47998;53.242;6.386;2023-09-18T15:18:09;23.20;1.00
51579;DHT22;47998;53.242;6.386;2023-09-18T15:20:35;23.30;99.90
51579;DHT22;47998;53.242;6.386;2023-09-18T15:23:01;23.30;99.90
51579;DHT22;47998;53.242;6.386;2023-09-18T15:25:27;23.30;99.90
51579;DHT22;47998;53.242;6.386;2023-09-18T15:27:53;23.10;99.90
51579;DHT22;47998;53.242;6.386;2023-09-18T15:30:20;22.70;1.00
51579;DHT22;47998;53.242;6.386;2023-09-18T15:32:51;22.50;71.10
51579;DHT22;47998;53.242;6.386;2023-09-18T15:35:18;22.40;99.90
51579;DHT22;47998;53.242;6.386;2023-09-18T15:37:44;22.50;1.00
51579;DHT22;47998;53.242;6.386;2023-09-18T15:40:11;22.80;99.90
51579;DHT22;47998;53.242;6.386;2023-09-18T15:42:38;22.90;1.00
51579;DHT22;47998;53.242;6.386;2023-09-18T15:45:08;23.00;1.00
51579;DHT22;47998;53.242;6.386;2023-09-18T15:47:39;23.10;99.90